Time;durP1;ratioP1;P1;durP2;ratioP2;P2;SDS_P1;SDS_P2;PMS_P1;PMS_P2;Temp;Humidity;BMP_temperature;BMP_pressure;BME280_temperature;BME280_humidity;BME280_pressure;Samples;Min_cycle;Max_cycle;Signal;HPM_P1;HPM_P2
2021/12/24 00:01:57;;;;;;;29.80;18.47;;;;;;;;;;6179030;28;20226;-67
2021/12/24 00:05:18;;;;;;;28.93;20.40;;;;;;;;;;6182606;28;20250;-67
2021/12/24 00:08:39;;;;;;;24.20;19.13;;;;;;;;;;6183229;28;20245;-67
2021/12/24 00:12:09;;;;;;;21.60;18.60;;;;;;;;;;6183557;28;20226;-67
2021/12/24 00:15:53;;;;;;;22.07;17.20;;;;;;;;;;6192628;28;20233;-67
2021/12/24 00:19:20;;;;;;;25.93;19.23;;;;;;;;;;6185910;28;20328;-69
2021/12/24 00:37:27;;;;;;;20.27;16.27;;;;;;;;;;6182175;28;20508;-68
2021/12/24 00:40:48;;;;;;;19.53;14.53;;;;;;;;;;6158850;28;20247;-68
2021/12/24 00:44:09;;;;;;;19.90;16.07;;;;;;;;;;6188672;28;20336;-68
2021/12/24 00:47:32;;;;;;;20.77;15.67;;;;;;;;;;6183474;28;20233;-68
2021/12/24 00:51:18;;;;;;;20.90;17.10;;;;;;;;;;6179516;28;20897;-69
2021/12/24 00:58:13;;;;;;;16.77;14.73;;;;;;;;;;6181544;28;20240;-67
2021/12/24 01:01:34;;;;;;;18.77;16.43;;;;;;;;;;6202543;28;20230;-67
2021/12/24 01:04:56;;;;;;;18.30;14.80;;;;;;;;;;6184031;28;20543;-67
2021/12/24 01:08:18;;;;;;;16.80;13.73;;;;;;;;;;6191060;28;20317;-67
2021/12/24 01:11:39;;;;;;;20.37;15.80;;;;;;;;;;6192346;28;20238;-67
2021/12/24 01:15:00;;;;;;;19.80;15.03;;;;;;;;;;6188102;28;20308;-68
2021/12/24 01:18:30;;;;;;;18.80;16.13;;;;;;;;;;6176434;28;20250;-67
2021/12/24 01:22:21;;;;;;;19.20;15.77;;;;;;;;;;6184210;28;20332;-67
2021/12/24 01:25:45;;;;;;;20.07;16.27;;;;;;;;;;6182886;28;20229;-68
2021/12/24 01:29:35;;;;;;;20.43;16.07;;;;;;;;;;6180559;28;20258;-66
2021/12/24 01:40:23;;;;;;;19.83;15.70;;;;;;;;;;6182452;28;20869;-67
2021/12/24 01:43:44;;;;;;;19.33;15.33;;;;;;;;;;6181563;28;20242;-67
2021/12/24 01:47:07;;;;;;;15.63;13.63;;;;;;;;;;6188701;28;20261;-66
2021/12/24 01:50:30;;;;;;;14.93;13.43;;;;;;;;;;6175692;28;20230;-66
2021/12/24 01:53:51;;;;;;;15.87;13.43;;;;;;;;;;6173629;28;20242;-66
2021/12/24 01:57:14;;;;;;;16.70;13.70;;;;;;;;;;6191948;28;20264;-67
2021/12/24 02:00:37;;;;;;;15.73;13.57;;;;;;;;;;6153566;28;20320;-67
2021/12/24 02:03:58;;;;;;;16.87;14.07;;;;;;;;;;6196371;28;20233;-67
2021/12/24 02:07:19;;;;;;;15.93;13.40;;;;;;;;;;6189798;28;20230;-67
2021/12/24 02:10:40;;;;;;;17.67;13.53;;;;;;;;;;6194998;28;20238;-67
2021/12/24 02:14:03;;;;;;;13.30;12.00;;;;;;;;;;6188130;28;20226;-68
2021/12/24 02:28:25;;;;;;;16.77;12.30;;;;;;;;;;6178882;28;20234;-66
2021/12/24 02:31:46;;;;;;;16.50;13.47;;;;;;;;;;6178316;28;20620;-67
2021/12/24 02:35:08;;;;;;;13.17;11.77;;;;;;;;;;6192715;28;20234;-67
2021/12/24 02:38:30;;;;;;;11.20;9.83;;;;;;;;;;6182372;28;20225;-67
2021/12/24 02:41:51;;;;;;;12.83;11.47;;;;;;;;;;6192642;28;20317;-67
2021/12/24 02:45:12;;;;;;;12.97;11.67;;;;;;;;;;6193129;28;20230;-66
2021/12/24 02:48:58;;;;;;;12.23;10.97;;;;;;;;;;6174885;28;20349;-67
2021/12/24 02:56:01;;;;;;;13.10;11.80;;;;;;;;;;6174567;28;20250;-66
2021/12/24 02:59:25;;;;;;;13.17;11.87;;;;;;;;;;6189255;28;20237;-67
2021/12/24 03:02:49;;;;;;;13.93;12.40;;;;;;;;;;6192198;28;20249;-68
2021/12/24 03:06:10;;;;;;;13.33;11.93;;;;;;;;;;6195019;28;20222;-67
2021/12/24 03:09:31;;;;;;;12.87;11.50;;;;;;;;;;6173028;28;20234;-66
2021/12/24 03:12:53;;;;;;;13.93;12.30;;;;;;;;;;6190214;28;20230;-67
2021/12/24 03:16:14;;;;;;;14.40;12.10;;;;;;;;;;6179921;28;20916;-66
2021/12/24 03:19:35;;;;;;;13.10;11.80;;;;;;;;;;6190446;28;20562;-66
2021/12/24 03:23:07;;;;;;;15.47;12.93;;;;;;;;;;6186912;28;20233;-66
2021/12/24 03:26:29;;;;;;;13.90;12.30;;;;;;;;;;6173856;28;20309;-66
2021/12/24 03:29:52;;;;;;;13.03;11.60;;;;;;;;;;6187879;28;20234;-67
2021/12/24 03:33:13;;;;;;;15.03;12.50;;;;;;;;;;6184910;28;20316;-67
2021/12/24 03:36:35;;;;;;;15.73;13.43;;;;;;;;;;6190402;28;20238;-67
2021/12/24 03:39:57;;;;;;;13.43;12.07;;;;;;;;;;6175197;28;20233;-68
2021/12/24 03:43:18;;;;;;;12.37;11.07;;;;;;;;;;6185576;28;20616;-67
2021/12/24 03:46:51;;;;;;;12.87;11.57;;;;;;;;;;6193831;28;20280;-67
2021/12/24 03:50:12;;;;;;;11.67;10.47;;;;;;;;;;6180617;28;20511;-66
2021/12/24 03:57:13;;;;;;;12.63;11.43;;;;;;;;;;6192159;28;20549;-66
2021/12/24 04:00:55;;;;;;;12.47;11.33;;;;;;;;;;6156161;28;20234;-67
2021/12/24 04:04:17;;;;;;;13.33;11.93;;;;;;;;;;6192919;28;20595;-68
2021/12/24 04:08:04;;;;;;;12.20;11.00;;;;;;;;;;6189246;28;20523;-67
2021/12/24 04:11:49;;;;;;;14.60;13.07;;;;;;;;;;6185798;28;20235;-66
2021/12/24 04:15:10;;;;;;;16.40;13.57;;;;;;;;;;6175358;28;20237;-67
2021/12/24 04:18:41;;;;;;;16.83;13.73;;;;;;;;;;6181033;28;20250;-66
2021/12/24 04:25:43;;;;;;;17.03;13.77;;;;;;;;;;6186252;28;20213;-67
2021/12/24 04:29:05;;;;;;;14.63;11.33;;;;;;;;;;6184392;28;20234;-67
2021/12/24 04:32:38;;;;;;;15.90;13.77;;;;;;;;;;6193626;28;20237;-66
2021/12/24 04:36:21;;;;;;;14.60;13.10;;;;;;;;;;6185466;28;20234;-66
2021/12/24 04:39:53;;;;;;;12.77;11.17;;;;;;;;;;6182384;28;20227;-66
2021/12/24 05:01:38;;;;;;;12.20;10.90;;;;;;;;;;6190193;28;20233;-67
2021/12/24 05:05:09;;;;;;;12.27;9.70;;;;;;;;;;6192049;28;20229;-67
2021/12/24 05:08:39;;;;;;;13.67;11.93;;;;;;;;;;6169757;28;20593;-67
2021/12/24 05:12:00;;;;;;;12.20;10.93;;;;;;;;;;6197856;28;20230;-67
2021/12/24 05:15:22;;;;;;;15.37;11.00;;;;;;;;;;6190328;28;20229;-67
2021/12/24 05:23:02;;;;;;;11.50;9.57;;;;;;;;;;6170010;28;20226;-66
2021/12/24 05:26:23;;;;;;;12.07;10.23;;;;;;;;;;6182959;28;20491;-67
2021/12/24 05:29:43;;;;;;;10.53;9.37;;;;;;;;;;6185398;28;20246;-65
2021/12/24 05:33:05;;;;;;;12.93;11.57;;;;;;;;;;6179307;28;20254;-67
2021/12/24 05:36:27;;;;;;;14.23;12.83;;;;;;;;;;6187418;28;20229;-67
2021/12/24 05:39:47;;;;;;;12.50;11.03;;;;;;;;;;6193394;28;20234;-67
2021/12/24 05:43:13;;;;;;;14.57;13.03;;;;;;;;;;6189209;28;20234;-67
2021/12/24 05:46:34;;;;;;;12.60;11.30;;;;;;;;;;6179079;28;20250;-66
2021/12/24 05:50:08;;;;;;;11.97;10.77;;;;;;;;;;6185200;28;20241;-66
2021/12/24 05:53:38;;;;;;;10.43;9.33;;;;;;;;;;6176100;28;20238;-67
2021/12/24 05:57:06;;;;;;;12.07;9.67;;;;;;;;;;6181926;28;20226;-66
2021/12/24 06:00:27;;;;;;;11.30;10.20;;;;;;;;;;6186203;28;20222;-66
2021/12/24 06:03:48;;;;;;;10.13;9.00;;;;;;;;;;6192431;28;20256;-66
2021/12/24 06:07:10;;;;;;;10.27;9.03;;;;;;;;;;6173739;28;20233;-66
2021/12/24 06:10:30;;;;;;;10.07;9.07;;;;;;;;;;6191794;28;20679;-66
2021/12/24 06:13:54;;;;;;;10.27;9.23;;;;;;;;;;6169671;28;20231;-66
2021/12/24 06:17:17;;;;;;;8.90;7.97;;;;;;;;;;6179495;28;20314;-66
2021/12/24 06:20:37;;;;;;;6.43;5.77;;;;;;;;;;6173453;28;20722;-66
2021/12/24 06:24:00;;;;;;;7.63;6.03;;;;;;;;;;6185514;28;20234;-67
2021/12/24 06:27:21;;;;;;;6.20;5.60;;;;;;;;;;6176480;28;20218;-67
2021/12/24 06:30:43;;;;;;;5.60;4.70;;;;;;;;;;6193394;28;20258;-66
2021/12/24 06:34:04;;;;;;;6.70;5.90;;;;;;;;;;6187226;28;20234;-66
2021/12/24 06:37:24;;;;;;;5.00;4.60;;;;;;;;;;6183139;28;20242;-66
2021/12/24 06:40:47;;;;;;;5.00;4.50;;;;;;;;;;6173168;28;20342;-65
2021/12/24 06:44:10;;;;;;;5.13;4.40;;;;;;;;;;6182123;28;20227;-66
2021/12/24 06:47:31;;;;;;;5.37;4.50;;;;;;;;;;6186151;28;20226;-67
2021/12/24 06:50:52;;;;;;;5.07;4.67;;;;;;;;;;6180031;28;20608;-66
2021/12/24 06:54:13;;;;;;;4.67;4.27;;;;;;;;;;6189924;28;20250;-66
2021/12/24 06:57:35;;;;;;;5.17;4.53;;;;;;;;;;6196019;28;20262;-66
2021/12/24 07:00:56;;;;;;;4.23;3.83;;;;;;;;;;6154007;28;20230;-66
2021/12/24 07:04:18;;;;;;;5.30;4.80;;;;;;;;;;6172641;28;20239;-66
2021/12/24 07:07:39;;;;;;;4.53;4.13;;;;;;;;;;6181148;28;20230;-66
2021/12/24 07:11:00;;;;;;;4.70;4.27;;;;;;;;;;6176258;28;20230;-66
2021/12/24 07:14:24;;;;;;;5.30;4.70;;;;;;;;;;6172800;28;20310;-66
2021/12/24 07:17:45;;;;;;;5.50;5.00;;;;;;;;;;6186004;28;20312;-67
2021/12/24 07:21:06;;;;;;;5.53;5.03;;;;;;;;;;6182643;28;20226;-66
2021/12/24 07:24:27;;;;;;;5.70;5.10;;;;;;;;;;6187013;28;20230;-67
2021/12/24 07:27:48;;;;;;;4.93;4.33;;;;;;;;;;6190466;28;20230;-66
2021/12/24 07:31:10;;;;;;;4.57;4.17;;;;;;;;;;6172047;28;20238;-66
2021/12/24 07:34:31;;;;;;;5.50;4.60;;;;;;;;;;6182685;28;20309;-67
2021/12/24 07:37:53;;;;;;;5.60;5.20;;;;;;;;;;6170566;28;20226;-66
2021/12/24 07:41:15;;;;;;;21.17;19.07;;;;;;;;;;6170757;28;20234;-66
2021/12/24 07:44:36;;;;;;;14.70;13.30;;;;;;;;;;6177653;28;20230;-66
2021/12/24 07:48:10;;;;;;;6.63;6.03;;;;;;;;;;6189611;28;20230;-67
2021/12/24 07:55:10;;;;;;;4.77;4.37;;;;;;;;;;6182060;28;20242;-67
2021/12/24 07:58:31;;;;;;;7.60;5.53;;;;;;;;;;6185603;28;20234;-66
2021/12/24 08:01:53;;;;;;;6.60;5.43;;;;;;;;;;6190957;28;20234;-66
2021/12/24 08:05:17;;;;;;;6.27;5.20;;;;;;;;;;6192130;28;20230;-66
2021/12/24 08:08:38;;;;;;;5.53;5.13;;;;;;;;;;6183818;28;20234;-65
2021/12/24 08:11:59;;;;;;;5.60;4.93;;;;;;;;;;6189870;28;20631;-67
2021/12/24 08:15:20;;;;;;;6.03;4.90;;;;;;;;;;6187998;28;20595;-66
2021/12/24 08:18:43;;;;;;;4.93;4.50;;;;;;;;;;6181192;28;20560;-66
2021/12/24 08:22:06;;;;;;;5.20;4.70;;;;;;;;;;6184695;28;20234;-66
2021/12/24 08:25:27;;;;;;;5.07;4.67;;;;;;;;;;6185441;28;20226;-67
2021/12/24 08:28:48;;;;;;;6.30;5.37;;;;;;;;;;6186829;28;20234;-67
2021/12/24 08:32:09;;;;;;;22.67;20.47;;;;;;;;;;6185168;28;20237;-65
2021/12/24 08:35:30;;;;;;;6.60;6.00;;;;;;;;;;6183127;28;20233;-67
2021/12/24 08:38:55;;;;;;;6.37;5.70;;;;;;;;;;6193262;28;20234;-67
2021/12/24 08:42:17;;;;;;;4.80;4.40;;;;;;;;;;6184514;28;20252;-67
2021/12/24 08:45:38;;;;;;;4.07;3.67;;;;;;;;;;6184620;28;20992;-67
2021/12/24 08:48:59;;;;;;;4.47;4.07;;;;;;;;;;6170709;28;20262;-67
2021/12/24 08:52:20;;;;;;;5.10;4.60;;;;;;;;;;6193788;28;20320;-67
2021/12/24 08:55:42;;;;;;;4.93;4.47;;;;;;;;;;6182985;28;20827;-67
2021/12/24 08:59:04;;;;;;;5.50;5.00;;;;;;;;;;6191497;28;20229;-66
2021/12/24 09:02:25;;;;;;;5.10;4.60;;;;;;;;;;6192116;28;20222;-67
2021/12/24 09:05:46;;;;;;;4.70;4.30;;;;;;;;;;6182409;28;20238;-66
2021/12/24 09:09:08;;;;;;;4.73;4.33;;;;;;;;;;6190025;28;20225;-66
2021/12/24 09:12:30;;;;;;;5.70;5.20;;;;;;;;;;6179049;28;20238;-66
2021/12/24 09:15:53;;;;;;;5.30;4.80;;;;;;;;;;6192986;28;20663;-67
2021/12/24 09:19:18;;;;;;;4.93;4.60;;;;;;;;;;6177508;28;20242;-66
2021/12/24 09:22:40;;;;;;;5.53;4.80;;;;;;;;;;6176478;28;20226;-66
2021/12/24 09:26:01;;;;;;;4.67;4.27;;;;;;;;;;6185752;28;20584;-67
2021/12/24 09:29:24;;;;;;;5.63;5.13;;;;;;;;;;6185601;28;20320;-65
2021/12/24 09:32:45;;;;;;;5.20;4.70;;;;;;;;;;6186815;28;20298;-66
2021/12/24 09:36:06;;;;;;;4.60;4.20;;;;;;;;;;6183795;28;20234;-66
2021/12/24 09:39:27;;;;;;;6.23;5.23;;;;;;;;;;6179340;28;20238;-68
2021/12/24 09:42:49;;;;;;;5.63;5.23;;;;;;;;;;6176563;28;20824;-66
2021/12/24 09:46:11;;;;;;;5.53;5.03;;;;;;;;;;6183170;28;20320;-68
2021/12/24 09:49:32;;;;;;;5.07;4.67;;;;;;;;;;6189724;28;20241;-68
2021/12/24 09:52:53;;;;;;;5.43;4.93;;;;;;;;;;6173796;28;20345;-66
2021/12/24 09:56:14;;;;;;;6.17;5.63;;;;;;;;;;6183684;28;20254;-67
2021/12/24 09:59:36;;;;;;;17.13;15.43;;;;;;;;;;6185116;28;20308;-65
2021/12/24 10:02:59;;;;;;;6.10;5.50;;;;;;;;;;6191784;28;20624;-67
2021/12/24 10:06:23;;;;;;;7.23;4.57;;;;;;;;;;6182135;28;20222;-68
2021/12/24 10:09:45;;;;;;;4.83;4.43;;;;;;;;;;6196993;28;20256;-66
2021/12/24 10:13:25;;;;;;;5.23;4.83;;;;;;;;;;6195274;28;20267;-67
2021/12/24 10:16:49;;;;;;;5.70;5.20;;;;;;;;;;6190998;28;20253;-67
2021/12/24 10:20:14;;;;;;;4.33;4.00;;;;;;;;;;6188223;28;20225;-67
2021/12/24 10:23:42;;;;;;;5.00;4.60;;;;;;;;;;6195831;28;20230;-67
2021/12/24 10:27:03;;;;;;;30.80;27.70;;;;;;;;;;6192699;28;20225;-67
2021/12/24 10:30:29;;;;;;;7.43;6.70;;;;;;;;;;6186684;28;20257;-67
2021/12/24 10:34:12;;;;;;;4.87;4.47;;;;;;;;;;6176434;28;20648;-67
2021/12/24 10:37:34;;;;;;;5.63;5.13;;;;;;;;;;6191807;28;20230;-66
2021/12/24 10:40:57;;;;;;;4.93;4.53;;;;;;;;;;6185358;28;20238;-66
2021/12/24 10:44:18;;;;;;;6.00;5.50;;;;;;;;;;6195204;28;20591;-66
2021/12/24 10:47:41;;;;;;;6.70;6.10;;;;;;;;;;6185473;28;20233;-66
2021/12/24 10:51:05;;;;;;;5.13;4.73;;;;;;;;;;6195280;28;20278;-68
2021/12/24 10:54:28;;;;;;;6.30;5.80;;;;;;;;;;6187347;28;20242;-67
2021/12/24 10:57:51;;;;;;;6.33;5.70;;;;;;;;;;6184334;28;20235;-67
2021/12/24 11:01:16;;;;;;;7.07;6.47;;;;;;;;;;6191322;28;20234;-67
2021/12/24 11:04:37;;;;;;;7.73;7.13;;;;;;;;;;6173957;28;20234;-67
2021/12/24 11:08:00;;;;;;;6.50;5.90;;;;;;;;;;6162759;28;20231;-66
2021/12/24 11:11:23;;;;;;;6.73;6.13;;;;;;;;;;6192468;28;20257;-67
2021/12/24 11:14:43;;;;;;;6.97;6.37;;;;;;;;;;6178938;28;20925;-66
2021/12/24 11:18:07;;;;;;;6.67;6.17;;;;;;;;;;6178528;28;20264;-67
2021/12/24 11:21:29;;;;;;;7.17;6.47;;;;;;;;;;6184145;28;20226;-67
2021/12/24 11:24:50;;;;;;;6.80;6.20;;;;;;;;;;6185507;28;20234;-67
2021/12/24 11:28:13;;;;;;;7.67;6.87;;;;;;;;;;6183473;28;20230;-66
2021/12/24 11:31:34;;;;;;;7.10;5.93;;;;;;;;;;6192987;28;20241;-67
2021/12/24 11:34:55;;;;;;;7.13;6.53;;;;;;;;;;6191661;28;20222;-67
2021/12/24 11:38:18;;;;;;;7.40;6.80;;;;;;;;;;6184803;28;20223;-66
2021/12/24 11:41:39;;;;;;;6.60;6.00;;;;;;;;;;6171892;28;20235;-68
2021/12/24 11:45:01;;;;;;;7.57;6.90;;;;;;;;;;6189385;28;20237;-67
2021/12/24 11:48:22;;;;;;;8.57;7.83;;;;;;;;;;6183058;28;20667;-65
2021/12/24 11:51:44;;;;;;;10.27;8.07;;;;;;;;;;6193609;28;20242;-66
2021/12/24 11:55:05;;;;;;;8.17;7.47;;;;;;;;;;6188976;28;20253;-67
2021/12/24 11:58:27;;;;;;;9.93;8.93;;;;;;;;;;6186910;28;20331;-67
2021/12/24 12:01:49;;;;;;;9.90;9.00;;;;;;;;;;6192784;28;20230;-67
2021/12/24 12:05:15;;;;;;;9.83;8.83;;;;;;;;;;6191974;28;20229;-66
2021/12/24 12:08:40;;;;;;;12.13;10.70;;;;;;;;;;6171751;28;20245;-67
2021/12/24 12:12:02;;;;;;;8.90;8.00;;;;;;;;;;6173977;28;20510;-67
2021/12/24 12:15:27;;;;;;;10.73;9.63;;;;;;;;;;6182111;28;20218;-66
2021/12/24 12:19:04;;;;;;;11.37;10.37;;;;;;;;;;6171690;28;20243;-66
2021/12/24 12:22:32;;;;;;;10.90;9.77;;;;;;;;;;6175535;28;20313;-66
2021/12/24 12:25:53;;;;;;;12.33;11.10;;;;;;;;;;6171552;28;20229;-67
2021/12/24 12:29:33;;;;;;;13.83;12.27;;;;;;;;;;6188254;28;20234;-66
2021/12/24 12:32:55;;;;;;;14.20;12.70;;;;;;;;;;6191539;28;20234;-66
2021/12/24 12:36:17;;;;;;;12.63;11.43;;;;;;;;;;6181242;28;20765;-66
2021/12/24 12:39:39;;;;;;;9.57;8.67;;;;;;;;;;6190890;28;20233;-66
2021/12/24 12:43:12;;;;;;;11.50;10.40;;;;;;;;;;6191900;28;20257;-66
2021/12/24 12:46:35;;;;;;;11.03;9.90;;;;;;;;;;6184844;28;20518;-66
2021/12/24 12:50:14;;;;;;;11.33;10.33;;;;;;;;;;6188088;28;20695;-66
2021/12/24 12:53:39;;;;;;;11.87;10.67;;;;;;;;;;6192867;28;20241;-65
2021/12/24 12:57:23;;;;;;;12.03;10.93;;;;;;;;;;6190558;28;20257;-67
2021/12/24 13:01:02;;;;;;;11.73;10.53;;;;;;;;;;6190135;28;20218;-66
2021/12/24 13:04:23;;;;;;;13.03;11.17;;;;;;;;;;6173429;28;20529;-67
2021/12/24 13:07:43;;;;;;;11.03;9.87;;;;;;;;;;6182686;28;20238;-67
2021/12/24 13:11:08;;;;;;;13.67;12.27;;;;;;;;;;6183783;28;20519;-67
2021/12/24 13:14:35;;;;;;;13.17;11.87;;;;;;;;;;6184091;28;20229;-66
2021/12/24 13:18:02;;;;;;;11.50;10.40;;;;;;;;;;6190683;28;20226;-66
2021/12/24 13:25:09;;;;;;;12.33;11.13;;;;;;;;;;6190694;28;20261;-68
2021/12/24 13:28:31;;;;;;;12.53;10.37;;;;;;;;;;6181511;28;20240;-68
2021/12/24 13:31:55;;;;;;;12.50;11.20;;;;;;;;;;6184861;28;20593;-67
2021/12/24 13:35:18;;;;;;;12.13;10.97;;;;;;;;;;6181149;28;20229;-67
2021/12/24 13:38:39;;;;;;;13.10;11.50;;;;;;;;;;6183028;28;20607;-67
2021/12/24 13:42:02;;;;;;;12.73;11.40;;;;;;;;;;6192816;28;20237;-67
2021/12/24 13:45:26;;;;;;;11.73;10.53;;;;;;;;;;6192070;28;20230;-67
2021/12/24 13:49:11;;;;;;;13.10;11.47;;;;;;;;;;6186535;28;20764;-67
2021/12/24 13:56:18;;;;;;;14.87;12.40;;;;;;;;;;6178212;28;20231;-66
2021/12/24 13:59:40;;;;;;;13.00;11.73;;;;;;;;;;6191121;28;20230;-67
2021/12/24 14:03:04;;;;;;;12.37;10.83;;;;;;;;;;6181264;28;20242;-66
2021/12/24 14:06:33;;;;;;;13.33;11.93;;;;;;;;;;6180495;28;20704;-67
2021/12/24 14:09:53;;;;;;;13.77;12.37;;;;;;;;;;6170905;28;20321;-67
2021/12/24 14:13:23;;;;;;;12.60;10.93;;;;;;;;;;6176643;28;20249;-66
2021/12/24 14:16:59;;;;;;;15.80;14.10;;;;;;;;;;6185380;28;20237;-66
2021/12/24 14:20:37;;;;;;;17.87;15.20;;;;;;;;;;6190005;28;20229;-68
2021/12/24 14:24:10;;;;;;;16.07;14.33;;;;;;;;;;6169032;28;20317;-67
2021/12/24 14:27:32;;;;;;;17.67;13.53;;;;;;;;;;6186505;28;20241;-66
2021/12/24 14:30:59;;;;;;;16.30;14.57;;;;;;;;;;6180098;28;20230;-67
2021/12/24 14:34:35;;;;;;;16.20;14.47;;;;;;;;;;6184413;28;20226;-65
2021/12/24 14:38:00;;;;;;;16.97;14.00;;;;;;;;;;6177450;28;20230;-66
2021/12/24 14:41:23;;;;;;;18.73;14.63;;;;;;;;;;6189874;28;20230;-66
2021/12/24 14:44:44;;;;;;;17.23;13.10;;;;;;;;;;6187056;28;20261;-67
2021/12/24 14:48:07;;;;;;;15.17;12.73;;;;;;;;;;6193253;28;20230;-66
2021/12/24 14:51:29;;;;;;;16.53;11.97;;;;;;;;;;6181556;28;20238;-66
2021/12/24 14:55:15;;;;;;;13.33;11.60;;;;;;;;;;6173295;28;20817;-66
2021/12/24 14:58:37;;;;;;;15.03;10.97;;;;;;;;;;6192591;28;20658;-66
2021/12/24 15:01:59;;;;;;;11.30;10.07;;;;;;;;;;6197585;28;20237;-66
2021/12/24 15:05:35;;;;;;;12.17;10.07;;;;;;;;;;6182918;28;20231;-67
2021/12/24 15:08:58;;;;;;;11.50;8.57;;;;;;;;;;6173203;28;20309;-66
2021/12/24 15:12:23;;;;;;;10.57;7.37;;;;;;;;;;6189943;28;20238;-65
2021/12/24 15:15:48;;;;;;;8.37;6.27;;;;;;;;;;6182603;28;20230;-68
2021/12/24 15:19:12;;;;;;;8.17;5.77;;;;;;;;;;6178895;28;20317;-67
2021/12/24 15:22:33;;;;;;;5.27;4.13;;;;;;;;;;6182096;28;20238;-67
2021/12/24 15:25:54;;;;;;;5.07;3.53;;;;;;;;;;6179647;28;20253;-66
2021/12/24 15:29:16;;;;;;;3.27;2.97;;;;;;;;;;6187058;28;20234;-66
2021/12/24 15:32:38;;;;;;;3.90;2.27;;;;;;;;;;6195478;28;20354;-68
2021/12/24 15:35:58;;;;;;;4.50;2.50;;;;;;;;;;6185093;28;20362;-66
2021/12/24 15:39:19;;;;;;;5.10;2.17;;;;;;;;;;6194366;28;20561;-66
2021/12/24 15:42:40;;;;;;;3.80;2.53;;;;;;;;;;6198692;28;20246;-67
2021/12/24 15:46:02;;;;;;;5.40;2.90;;;;;;;;;;6176177;28;20593;-65
2021/12/24 15:49:23;;;;;;;6.13;2.13;;;;;;;;;;6192162;28;20229;-68
2021/12/24 15:52:44;;;;;;;4.67;2.50;;;;;;;;;;6184718;28;20242;-66
2021/12/24 15:56:07;;;;;;;7.23;1.60;;;;;;;;;;6195478;28;20234;-66
2021/12/24 15:59:31;;;;;;;3.70;2.13;;;;;;;;;;6190515;28;20218;-66
2021/12/24 16:02:53;;;;;;;2.67;1.37;;;;;;;;;;6185908;28;20222;-66
2021/12/24 16:06:14;;;;;;;4.73;1.80;;;;;;;;;;6193357;28;20300;-67
2021/12/24 16:09:35;;;;;;;4.80;1.40;;;;;;;;;;6174538;28;20276;-67
2021/12/24 16:12:58;;;;;;;2.87;1.60;;;;;;;;;;6182471;28;20221;-67
2021/12/24 16:16:23;;;;;;;5.60;1.70;;;;;;;;;;6194321;28;20233;-65
2021/12/24 16:19:45;;;;;;;3.53;1.80;;;;;;;;;;6188937;28;20612;-66
2021/12/24 16:23:06;;;;;;;1.93;1.53;;;;;;;;;;6189411;28;20235;-67
2021/12/24 16:26:28;;;;;;;2.80;1.10;;;;;;;;;;6188219;28;20230;-66
2021/12/24 16:29:52;;;;;;;3.60;1.20;;;;;;;;;;6185108;28;20575;-66
2021/12/24 16:33:13;;;;;;;1.57;1.30;;;;;;;;;;6181952;28;20241;-66
2021/12/24 16:36:35;;;;;;;5.73;1.50;;;;;;;;;;6191109;28;20273;-66
2021/12/24 16:39:56;;;;;;;6.40;1.80;;;;;;;;;;6190882;28;20665;-67
2021/12/24 16:43:17;;;;;;;2.23;1.23;;;;;;;;;;6188969;28;20629;-66
2021/12/24 16:46:38;;;;;;;2.63;1.40;;;;;;;;;;6189534;28;20234;-66
2021/12/24 16:49:58;;;;;;;1.67;1.20;;;;;;;;;;6190210;28;20218;-66
2021/12/24 16:53:21;;;;;;;1.87;1.20;;;;;;;;;;6190223;28;20230;-66
2021/12/24 16:56:42;;;;;;;4.47;1.87;;;;;;;;;;6190206;28;20261;-67
2021/12/24 17:00:04;;;;;;;4.63;1.00;;;;;;;;;;6189539;28;20233;-67
2021/12/24 17:03:26;;;;;;;5.13;1.47;;;;;;;;;;6191434;28;20860;-66
2021/12/24 17:06:47;;;;;;;1.80;0.93;;;;;;;;;;6192486;28;20225;-66
2021/12/24 17:10:11;;;;;;;3.90;1.70;;;;;;;;;;6178656;28;20639;-67
2021/12/24 17:13:32;;;;;;;2.27;1.10;;;;;;;;;;6176058;28;20257;-66
2021/12/24 17:16:53;;;;;;;2.23;1.50;;;;;;;;;;6183167;28;20276;-66
2021/12/24 17:20:18;;;;;;;2.77;0.80;;;;;;;;;;6179717;28;20238;-67
2021/12/24 17:23:39;;;;;;;4.97;1.40;;;;;;;;;;6174723;28;20238;-64
2021/12/24 17:27:04;;;;;;;3.10;2.07;;;;;;;;;;6188348;28;20877;-66
2021/12/24 17:30:25;;;;;;;2.23;1.70;;;;;;;;;;6171720;28;20226;-67
2021/12/24 17:33:46;;;;;;;2.60;1.83;;;;;;;;;;6192815;28;20506;-65
2021/12/24 17:37:08;;;;;;;1.00;0.77;;;;;;;;;;6186194;28;20643;-66
2021/12/24 17:40:29;;;;;;;1.27;0.97;;;;;;;;;;6190850;28;20687;-66
2021/12/24 17:43:51;;;;;;;2.13;1.87;;;;;;;;;;6193330;28;20237;-66
2021/12/24 17:47:12;;;;;;;3.00;1.17;;;;;;;;;;6185205;28;20242;-66
2021/12/24 17:50:33;;;;;;;1.17;0.97;;;;;;;;;;6173122;28;20615;-67
2021/12/24 17:53:54;;;;;;;3.13;1.20;;;;;;;;;;6193130;28;20511;-66
2021/12/24 17:57:15;;;;;;;2.50;1.00;;;;;;;;;;6189290;28;20218;-66
2021/12/24 18:00:38;;;;;;;3.13;1.97;;;;;;;;;;6188964;28;20553;-65
2021/12/24 18:03:59;;;;;;;1.30;1.20;;;;;;;;;;6186841;28;20226;-66
2021/12/24 18:07:20;;;;;;;6.90;1.67;;;;;;;;;;6170836;28;20817;-66
2021/12/24 18:10:41;;;;;;;1.73;1.30;;;;;;;;;;6168921;28;20790;-67
2021/12/24 18:14:02;;;;;;;1.03;1.00;;;;;;;;;;6178623;28;20230;-67
2021/12/24 18:17:24;;;;;;;3.70;1.90;;;;;;;;;;6183638;28;20249;-66
2021/12/24 18:20:46;;;;;;;4.53;1.70;;;;;;;;;;6179964;28;20272;-66
2021/12/24 18:24:07;;;;;;;3.00;2.43;;;;;;;;;;6174106;28;20238;-66
2021/12/24 18:27:28;;;;;;;3.73;1.37;;;;;;;;;;6188017;28;20226;-67
2021/12/24 18:30:49;;;;;;;1.63;0.90;;;;;;;;;;6192420;28;20237;-66
2021/12/24 18:34:12;;;;;;;5.77;1.43;;;;;;;;;;6191516;28;20919;-66
2021/12/24 18:37:46;;;;;;;2.57;1.27;;;;;;;;;;6185222;28;20241;-67
2021/12/24 18:41:07;;;;;;;4.50;1.77;;;;;;;;;;6173440;28;20223;-66
2021/12/24 18:44:29;;;;;;;1.70;1.40;;;;;;;;;;6180690;28;21075;-65
2021/12/24 18:47:50;;;;;;;3.30;1.30;;;;;;;;;;6178845;28;20325;-66
2021/12/24 18:51:12;;;;;;;0.83;0.83;;;;;;;;;;6172924;28;20230;-67
2021/12/24 18:54:33;;;;;;;4.03;1.30;;;;;;;;;;6184151;28;20643;-66
2021/12/24 18:57:53;;;;;;;2.43;1.63;;;;;;;;;;6187615;28;20274;-67
2021/12/24 19:01:15;;;;;;;2.23;0.60;;;;;;;;;;6181246;28;20234;-67
2021/12/24 19:04:36;;;;;;;1.87;0.97;;;;;;;;;;6183922;28;20235;-66
2021/12/24 19:07:58;;;;;;;2.90;1.00;;;;;;;;;;6191682;28;20328;-66
2021/12/24 19:11:21;;;;;;;1.03;0.93;;;;;;;;;;6184475;28;20230;-66
2021/12/24 19:14:42;;;;;;;1.30;1.00;;;;;;;;;;6195724;28;20233;-66
2021/12/24 19:18:03;;;;;;;2.63;1.33;;;;;;;;;;6186348;28;20223;-67
2021/12/24 19:21:24;;;;;;;2.73;1.80;;;;;;;;;;6190226;28;20230;-65
2021/12/24 19:24:46;;;;;;;2.20;1.13;;;;;;;;;;6180971;28;20321;-67
2021/12/24 19:28:09;;;;;;;1.83;1.30;;;;;;;;;;6186149;28;20631;-66
2021/12/24 19:31:30;;;;;;;1.50;1.00;;;;;;;;;;6180925;28;20586;-67
2021/12/24 19:34:51;;;;;;;3.57;1.17;;;;;;;;;;6191999;28;20663;-67
2021/12/24 19:38:12;;;;;;;3.93;2.00;;;;;;;;;;6185676;28;20234;-67
2021/12/24 19:41:34;;;;;;;3.77;1.47;;;;;;;;;;6186149;28;20364;-66
2021/12/24 19:44:55;;;;;;;1.50;1.13;;;;;;;;;;6185342;28;20233;-67
2021/12/24 19:48:17;;;;;;;2.00;1.57;;;;;;;;;;6193204;28;20627;-66
2021/12/24 19:51:38;;;;;;;1.27;1.03;;;;;;;;;;6179796;28;20222;-66
2021/12/24 19:54:59;;;;;;;2.07;1.70;;;;;;;;;;6187465;28;20512;-66
2021/12/24 19:58:21;;;;;;;1.23;0.93;;;;;;;;;;6194852;28;20214;-67
2021/12/24 20:01:42;;;;;;;3.47;1.20;;;;;;;;;;6179118;28;20317;-66
2021/12/24 20:05:04;;;;;;;1.53;0.90;;;;;;;;;;6193365;28;20283;-67
2021/12/24 20:08:25;;;;;;;2.33;1.20;;;;;;;;;;6193270;28;20238;-67
2021/12/24 20:11:46;;;;;;;0.87;0.87;;;;;;;;;;6191819;28;20230;-65
2021/12/24 20:15:10;;;;;;;1.80;1.20;;;;;;;;;;6191303;28;20261;-67
2021/12/24 20:18:31;;;;;;;2.83;1.70;;;;;;;;;;6185901;28;20223;-64
2021/12/24 20:21:51;;;;;;;1.77;0.93;;;;;;;;;;6175825;28;20254;-66
2021/12/24 20:25:13;;;;;;;1.30;1.03;;;;;;;;;;6170103;28;20230;-66
2021/12/24 20:28:34;;;;;;;4.17;2.20;;;;;;;;;;6189362;28;20234;-66
2021/12/24 20:31:57;;;;;;;5.00;1.57;;;;;;;;;;6192858;28;20318;-66
2021/12/24 20:35:18;;;;;;;1.77;1.30;;;;;;;;;;6180905;28;20234;-66
2021/12/24 20:38:39;;;;;;;1.30;1.17;;;;;;;;;;6188943;28;20536;-69
2021/12/24 20:42:00;;;;;;;1.23;1.00;;;;;;;;;;6190128;28;20225;-66
2021/12/24 20:45:22;;;;;;;1.37;1.27;;;;;;;;;;6183446;28;20320;-67
2021/12/24 20:48:44;;;;;;;2.10;1.27;;;;;;;;;;6178966;28;20230;-66
2021/12/24 20:52:06;;;;;;;2.00;1.00;;;;;;;;;;6186578;28;20640;-67
2021/12/24 20:55:28;;;;;;;2.40;1.43;;;;;;;;;;6189137;28;20226;-67
2021/12/24 20:58:49;;;;;;;1.73;1.30;;;;;;;;;;6185539;28;20427;-66
2021/12/24 21:02:09;;;;;;;3.40;1.77;;;;;;;;;;6192301;28;20233;-67
2021/12/24 21:05:32;;;;;;;1.30;1.20;;;;;;;;;;6172927;28;20294;-66
2021/12/24 21:08:52;;;;;;;2.80;1.70;;;;;;;;;;6194580;28;20510;-66
2021/12/24 21:12:13;;;;;;;2.67;1.30;;;;;;;;;;6172431;28;20230;-66
2021/12/24 21:15:34;;;;;;;3.33;1.20;;;;;;;;;;6191825;28;20245;-67
2021/12/24 21:18:55;;;;;;;1.63;1.10;;;;;;;;;;6183726;28;20238;-67
2021/12/24 21:22:17;;;;;;;1.63;1.40;;;;;;;;;;6184290;28;20230;-67
2021/12/24 21:25:38;;;;;;;2.17;1.97;;;;;;;;;;6189407;28;20242;-67
2021/12/24 21:29:00;;;;;;;1.80;1.70;;;;;;;;;;6192427;28;20636;-67